sensor_id;sensor_type;location;lat;lon;timestamp;pressure;altitude;pressure_sealevel;temperature;humidity
31088;BME280;17745;55.914;37.554;2023-04-28T00:00:55;98596.78;;;15.17;47.08
31088;BME280;17745;55.914;37.554;2023-04-28T00:03:56;98589.28;;;15.05;47.39
31088;BME280;17745;55.914;37.554;2023-04-28T00:06:48;98591.97;;;14.91;47.81
31088;BME280;17745;55.914;37.554;2023-04-28T00:09:31;98587.09;;;14.79;47.95
31088;BME280;17745;55.914;37.554;2023-04-28T00:12:40;98586.44;;;14.74;48.06
31088;BME280;17745;55.914;37.554;2023-04-28T00:15:16;98582.97;;;14.73;48.43
31088;BME280;17745;55.914;37.554;2023-04-28T00:17:53;98593.41;;;14.69;48.25
31088;BME280;17745;55.914;37.554;2023-04-28T00:20:41;98598.53;;;14.66;48.49
31088;BME280;17745;55.914;37.554;2023-04-28T00:23:42;98595.88;;;14.66;48.57
31088;BME280;17745;55.914;37.554;2023-04-28T00:26:18;98595.56;;;14.67;48.63
31088;BME280;17745;55.914;37.554;2023-04-28T00:29:17;98599.13;;;14.63;48.83
31088;BME280;17745;55.914;37.554;2023-04-28T00:31:58;98592.00;;;14.58;49.09
31088;BME280;17745;55.914;37.554;2023-04-28T00:35:16;98584.69;;;14.50;49.03
31088;BME280;17745;55.914;37.554;2023-04-28T00:38:14;98590.31;;;14.48;49.20
31088;BME280;17745;55.914;37.554;2023-04-28T00:40:52;98591.09;;;14.49;49.24
31088;BME280;17745;55.914;37.554;2023-04-28T00:43:45;98590.09;;;14.44;49.34
31088;BME280;17745;55.914;37.554;2023-04-28T00:47:03;98585.06;;;14.43;49.45
31088;BME280;17745;55.914;37.554;2023-04-28T00:50:11;98581.31;;;14.44;49.69
31088;BME280;17745;55.914;37.554;2023-04-28T00:53:31;98572.25;;;14.45;49.68
31088;BME280;17745;55.914;37.554;2023-04-28T00:56:25;98572.78;;;14.28;49.99
31088;BME280;17745;55.914;37.554;2023-04-28T00:59:07;98583.03;;;14.21;50.04
31088;BME280;17745;55.914;37.554;2023-04-28T01:05:35;98574.84;;;14.17;50.46
31088;BME280;17745;55.914;37.554;2023-04-28T01:08:11;98570.91;;;14.14;50.56
31088;BME280;17745;55.914;37.554;2023-04-28T01:10:53;98573.84;;;14.13;50.49
31088;BME280;17745;55.914;37.554;2023-04-28T01:13:27;98575.63;;;14.18;50.66
31088;BME280;17745;55.914;37.554;2023-04-28T01:16:15;98572.38;;;14.21;50.72
31088;BME280;17745;55.914;37.554;2023-04-28T01:18:49;98579.78;;;14.24;50.71
31088;BME280;17745;55.914;37.554;2023-04-28T01:21:45;98578.03;;;14.19;50.77
31088;BME280;17745;55.914;37.554;2023-04-28T01:31:27;98573.34;;;14.11;51.37
31088;BME280;17745;55.914;37.554;2023-04-28T01:34:04;98570.41;;;14.12;51.28
31088;BME280;17745;55.914;37.554;2023-04-28T01:36:57;98566.94;;;14.12;51.25
31088;BME280;17745;55.914;37.554;2023-04-28T01:39:54;98569.59;;;14.12;51.37
31088;BME280;17745;55.914;37.554;2023-04-28T01:49:54;98573.34;;;14.11;51.67
31088;BME280;17745;55.914;37.554;2023-04-28T01:52:56;98572.56;;;14.10;51.62
31088;BME280;17745;55.914;37.554;2023-04-28T01:59:53;98583.34;;;14.19;51.62
31088;BME280;17745;55.914;37.554;2023-04-28T02:02:44;98578.53;;;14.21;51.62
31088;BME280;17745;55.914;37.554;2023-04-28T02:06:04;98578.53;;;14.21;51.58
31088;BME280;17745;55.914;37.554;2023-04-28T02:08:53;98578.69;;;14.25;51.74
31088;BME280;17745;55.914;37.554;2023-04-28T02:11:59;98587.41;;;14.30;51.58
31088;BME280;17745;55.914;37.554;2023-04-28T02:17:39;98578.44;;;14.40;51.63
31088;BME280;17745;55.914;37.554;2023-04-28T02:20:41;98578.66;;;14.44;51.67
31088;BME280;17745;55.914;37.554;2023-04-28T02:23:45;98570.84;;;14.48;51.75
31088;BME280;17745;55.914;37.554;2023-04-28T02:26:21;98575.53;;;14.56;51.85
31088;BME280;17745;55.914;37.554;2023-04-28T02:33:07;98568.34;;;14.70;51.82
31088;BME280;17745;55.914;37.554;2023-04-28T02:36:10;98563.22;;;14.74;51.78
31088;BME280;17745;55.914;37.554;2023-04-28T02:39:32;98572.72;;;14.80;51.74
31088;BME280;17745;55.914;37.554;2023-04-28T02:42:46;98575.97;;;14.91;51.65
31088;BME280;17745;55.914;37.554;2023-04-28T02:45:44;98560.47;;;14.93;51.47
31088;BME280;17745;55.914;37.554;2023-04-28T02:48:30;98556.03;;;15.03;51.60
31088;BME280;17745;55.914;37.554;2023-04-28T02:51:19;98556.62;;;14.99;51.57
31088;BME280;17745;55.914;37.554;2023-04-28T02:57:58;98568.56;;;15.16;51.52
31088;BME280;17745;55.914;37.554;2023-04-28T03:00:50;98570.91;;;15.18;51.46
31088;BME280;17745;55.914;37.554;2023-04-28T03:04:07;98576.63;;;15.25;51.36
31088;BME280;17745;55.914;37.554;2023-04-28T03:10:45;98590.63;;;15.44;51.14
31088;BME280;17745;55.914;37.554;2023-04-28T03:13:42;98584.78;;;15.56;51.17
31088;BME280;17745;55.914;37.554;2023-04-28T03:16:22;98585.81;;;15.69;51.09
31088;BME280;17745;55.914;37.554;2023-04-28T03:19:05;98588.97;;;15.71;50.96
31088;BME280;17745;55.914;37.554;2023-04-28T03:22:03;98594.50;;;15.75;50.98
31088;BME280;17745;55.914;37.554;2023-04-28T03:25:11;98594.88;;;15.82;50.97
31088;BME280;17745;55.914;37.554;2023-04-28T03:28:13;98603.47;;;15.93;51.00
31088;BME280;17745;55.914;37.554;2023-04-28T03:31:45;98591.75;;;16.03;50.82
31088;BME280;17745;55.914;37.554;2023-04-28T03:34:55;98590.91;;;16.17;50.75
31088;BME280;17745;55.914;37.554;2023-04-28T03:38:01;98594.72;;;16.24;50.65
31088;BME280;17745;55.914;37.554;2023-04-28T03:41:12;98594.94;;;16.37;50.48
31088;BME280;17745;55.914;37.554;2023-04-28T03:44:42;98596.72;;;16.41;50.36
31088;BME280;17745;55.914;37.554;2023-04-28T03:48:06;98593.16;;;16.55;50.30
31088;BME280;17745;55.914;37.554;2023-04-28T03:50:59;98599.50;;;16.68;50.16
31088;BME280;17745;55.914;37.554;2023-04-28T03:53:48;98593.72;;;16.75;50.04
31088;BME280;17745;55.914;37.554;2023-04-28T03:59:55;98604.56;;;16.78;50.02
31088;BME280;17745;55.914;37.554;2023-04-28T04:02:39;98610.88;;;16.82;49.97
31088;BME280;17745;55.914;37.554;2023-04-28T04:05:28;98604.00;;;16.90;49.96
31088;BME280;17745;55.914;37.554;2023-04-28T04:08:08;98610.69;;;17.02;49.82
31088;BME280;17745;55.914;37.554;2023-04-28T04:14:09;98614.37;;;17.32;49.46
31088;BME280;17745;55.914;37.554;2023-04-28T04:18:16;98624.00;;;17.51;49.29
31088;BME280;17745;55.914;37.554;2023-04-28T04:21:29;98617.25;;;17.80;48.90
31088;BME280;17745;55.914;37.554;2023-04-28T04:24:09;98610.97;;;17.93;48.71
31088;BME280;17745;55.914;37.554;2023-04-28T04:38:17;98609.62;;;18.52;47.81
31088;BME280;17745;55.914;37.554;2023-04-28T04:41:17;98616.50;;;18.80;47.62
31088;BME280;17745;55.914;37.554;2023-04-28T04:44:28;98620.50;;;19.04;47.13
31088;BME280;17745;55.914;37.554;2023-04-28T04:47:12;98629.75;;;19.15;46.97
31088;BME280;17745;55.914;37.554;2023-04-28T04:49:47;98626.06;;;19.28;46.66
31088;BME280;17745;55.914;37.554;2023-04-28T04:52:26;98628.37;;;19.39;46.45
31088;BME280;17745;55.914;37.554;2023-04-28T04:55:06;98622.75;;;19.53;46.04
31088;BME280;17745;55.914;37.554;2023-04-28T04:57:47;98626.09;;;19.71;45.67
31088;BME280;17745;55.914;37.554;2023-04-28T05:00:30;98621.69;;;19.66;45.71
31088;BME280;17745;55.914;37.554;2023-04-28T05:03:09;98627.16;;;19.79;45.47
31088;BME280;17745;55.914;37.554;2023-04-28T05:05:50;98629.41;;;19.89;45.42
31088;BME280;17745;55.914;37.554;2023-04-28T05:09:03;98637.66;;;19.93;45.13
31088;BME280;17745;55.914;37.554;2023-04-28T05:16:27;98636.91;;;19.62;44.95
31088;BME280;17745;55.914;37.554;2023-04-28T05:19:14;98644.87;;;19.50;45.11
31088;BME280;17745;55.914;37.554;2023-04-28T05:22:08;98641.25;;;19.46;45.02
31088;BME280;17745;55.914;37.554;2023-04-28T05:25:06;98648.53;;;19.45;45.18
31088;BME280;17745;55.914;37.554;2023-04-28T05:27:55;98640.09;;;19.55;45.08
31088;BME280;17745;55.914;37.554;2023-04-28T05:30:37;98643.84;;;19.84;44.84
31088;BME280;17745;55.914;37.554;2023-04-28T05:33:51;98655.31;;;20.15;44.54
31088;BME280;17745;55.914;37.554;2023-04-28T05:36:57;98665.47;;;20.31;44.24
31088;BME280;17745;55.914;37.554;2023-04-28T05:43:21;98671.62;;;20.31;44.07
31088;BME280;17745;55.914;37.554;2023-04-28T05:46:51;98686.97;;;20.09;44.17
31088;BME280;17745;55.914;37.554;2023-04-28T05:49:50;98683.59;;;19.70;44.36
31088;BME280;17745;55.914;37.554;2023-04-28T05:53:29;98672.53;;;19.20;44.90
31088;BME280;17745;55.914;37.554;2023-04-28T05:56:09;98686.50;;;18.87;45.68
31088;BME280;17745;55.914;37.554;2023-04-28T05:59:18;98683.06;;;18.78;45.83
31088;BME280;17745;55.914;37.554;2023-04-28T06:02:23;98678.91;;;18.89;45.89
31088;BME280;17745;55.914;37.554;2023-04-28T06:05:14;98677.63;;;19.04;45.66
31088;BME280;17745;55.914;37.554;2023-04-28T06:08:22;98674.59;;;19.14;45.77
31088;BME280;17745;55.914;37.554;2023-04-28T06:11:16;98678.66;;;19.21;45.74
31088;BME280;17745;55.914;37.554;2023-04-28T06:14:18;98678.03;;;19.15;45.64
31088;BME280;17745;55.914;37.554;2023-04-28T06:17:03;98675.91;;;18.99;45.94
31088;BME280;17745;55.914;37.554;2023-04-28T06:23:47;98680.88;;;18.71;46.44
31088;BME280;17745;55.914;37.554;2023-04-28T06:26:30;98675.53;;;18.53;46.73
31088;BME280;17745;55.914;37.554;2023-04-28T06:29:39;98687.00;;;18.71;46.74
31088;BME280;17745;55.914;37.554;2023-04-28T06:32:25;98680.81;;;18.89;46.58
31088;BME280;17745;55.914;37.554;2023-04-28T06:35:22;98682.53;;;19.02;46.39
31088;BME280;17745;55.914;37.554;2023-04-28T06:38:13;98676.47;;;19.14;46.32
31088;BME280;17745;55.914;37.554;2023-04-28T06:41:04;98672.75;;;19.36;46.19
31088;BME280;17745;55.914;37.554;2023-04-28T06:44:00;98680.16;;;19.69;45.93
31088;BME280;17745;55.914;37.554;2023-04-28T06:46:41;98667.44;;;20.21;45.59
31088;BME280;17745;55.914;37.554;2023-04-28T06:49:46;98666.00;;;20.70;45.11
31088;BME280;17745;55.914;37.554;2023-04-28T06:52:36;98657.91;;;21.16;44.55
31088;BME280;17745;55.914;37.554;2023-04-28T06:55:21;98657.56;;;21.42;44.27
31088;BME280;17745;55.914;37.554;2023-04-28T06:58:14;98663.69;;;21.55;44.09
31088;BME280;17745;55.914;37.554;2023-04-28T07:00:55;98655.19;;;21.53;43.81
31088;BME280;17745;55.914;37.554;2023-04-28T07:03:41;98656.75;;;21.54;43.95
31088;BME280;17745;55.914;37.554;2023-04-28T07:06:31;98668.31;;;21.67;43.63
31088;BME280;17745;55.914;37.554;2023-04-28T07:09:14;98661.34;;;21.66;43.42
31088;BME280;17745;55.914;37.554;2023-04-28T07:11:55;98664.38;;;21.52;43.40
31088;BME280;17745;55.914;37.554;2023-04-28T07:14:30;98660.88;;;21.52;43.49
31088;BME280;17745;55.914;37.554;2023-04-28T07:17:23;98657.19;;;21.56;43.27
31088;BME280;17745;55.914;37.554;2023-04-28T07:19:59;98650.44;;;21.75;43.08
31088;BME280;17745;55.914;37.554;2023-04-28T07:22:40;98663.00;;;22.12;42.79
31088;BME280;17745;55.914;37.554;2023-04-28T07:25:20;98666.22;;;22.30;42.40
31088;BME280;17745;55.914;37.554;2023-04-28T07:28:17;98652.47;;;22.35;42.15
31088;BME280;17745;55.914;37.554;2023-04-28T07:31:04;98657.59;;;22.69;41.76
31088;BME280;17745;55.914;37.554;2023-04-28T07:34:12;98648.19;;;22.79;41.29
31088;BME280;17745;55.914;37.554;2023-04-28T07:37:23;98654.09;;;22.52;41.26
31088;BME280;17745;55.914;37.554;2023-04-28T07:40:30;98659.09;;;22.38;41.48
31088;BME280;17745;55.914;37.554;2023-04-28T07:43:34;98655.75;;;22.28;41.58
31088;BME280;17745;55.914;37.554;2023-04-28T07:46:48;98666.53;;;22.28;41.67
31088;BME280;17745;55.914;37.554;2023-04-28T07:49:51;98664.12;;;22.11;41.70
31088;BME280;17745;55.914;37.554;2023-04-28T07:53:09;98663.16;;;21.75;41.90
31088;BME280;17745;55.914;37.554;2023-04-28T07:56:20;98671.56;;;21.36;42.53
31088;BME280;17745;55.914;37.554;2023-04-28T08:21:26;98673.81;;;21.71;42.97
31088;BME280;17745;55.914;37.554;2023-04-28T08:24:15;98675.69;;;21.70;42.94
31088;BME280;17745;55.914;37.554;2023-04-28T08:30:28;98671.00;;;21.42;43.41
31088;BME280;17745;55.914;37.554;2023-04-28T08:34:02;98668.00;;;21.19;43.65
31088;BME280;17745;55.914;37.554;2023-04-28T08:55:42;98668.56;;;19.99;46.12
31088;BME280;17745;55.914;37.554;2023-04-28T08:58:52;98680.31;;;19.64;47.34
31088;BME280;17745;55.914;37.554;2023-04-28T09:02:34;98676.75;;;19.51;48.00
31088;BME280;17745;55.914;37.554;2023-04-28T09:06:02;98682.09;;;19.30;48.81
31088;BME280;17745;55.914;37.554;2023-04-28T09:09:45;98685.34;;;19.06;49.74
31088;BME280;17745;55.914;37.554;2023-04-28T09:20:00;98688.81;;;19.06;51.12
31088;BME280;17745;55.914;37.554;2023-04-28T09:23:19;98686.41;;;19.22;50.97
31088;BME280;17745;55.914;37.554;2023-04-28T09:26:38;98690.63;;;19.32;50.88
31088;BME280;17745;55.914;37.554;2023-04-28T09:29:35;98693.31;;;19.32;50.98
31088;BME280;17745;55.914;37.554;2023-04-28T09:40:32;98681.13;;;19.86;51.61
31088;BME280;17745;55.914;37.554;2023-04-28T09:43:29;98677.31;;;20.29;51.05
31088;BME280;17745;55.914;37.554;2023-04-28T09:46:30;98686.06;;;20.73;50.55
31088;BME280;17745;55.914;37.554;2023-04-28T09:50:09;98683.34;;;21.06;50.31
31088;BME280;17745;55.914;37.554;2023-04-28T09:53:51;98686.44;;;21.95;49.43
31088;BME280;17745;55.914;37.554;2023-04-28T10:05:02;98697.81;;;21.76;48.50
31088;BME280;17745;55.914;37.554;2023-04-28T10:08:36;98687.63;;;21.45;48.90
31088;BME280;17745;55.914;37.554;2023-04-28T10:12:28;98697.28;;;21.33;49.08
31088;BME280;17745;55.914;37.554;2023-04-28T10:30:16;98684.78;;;21.78;48.79
31088;BME280;17745;55.914;37.554;2023-04-28T10:33:28;98681.00;;;21.67;48.55
31088;BME280;17745;55.914;37.554;2023-04-28T10:36:45;98685.84;;;21.36;48.73
31088;BME280;17745;55.914;37.554;2023-04-28T10:42:57;98696.41;;;20.37;49.91
31088;BME280;17745;55.914;37.554;2023-04-28T10:46:02;98719.84;;;19.85;50.59
31088;BME280;17745;55.914;37.554;2023-04-28T10:49:05;98709.16;;;19.07;51.93
31088;BME280;17745;55.914;37.554;2023-04-28T10:51:41;98714.97;;;18.18;53.95
31088;BME280;17745;55.914;37.554;2023-04-28T10:54:17;98718.50;;;17.69;54.94
31088;BME280;17745;55.914;37.554;2023-04-28T10:57:22;98730.06;;;17.38;55.85
31088;BME280;17745;55.914;37.554;2023-04-28T11:00:32;98732.97;;;17.19;56.30
31088;BME280;17745;55.914;37.554;2023-04-28T11:03:08;98731.06;;;17.10;56.58
31088;BME280;17745;55.914;37.554;2023-04-28T11:06:20;98726.38;;;17.16;56.25
31088;BME280;17745;55.914;37.554;2023-04-28T11:09:04;98730.19;;;17.33;56.45
31088;BME280;17745;55.914;37.554;2023-04-28T11:12:30;98725.78;;;17.28;56.49
31088;BME280;17745;55.914;37.554;2023-04-28T11:22:27;98731.13;;;17.68;56.87
31088;BME280;17745;55.914;37.554;2023-04-28T11:25:10;98725.78;;;17.77;56.85
31088;BME280;17745;55.914;37.554;2023-04-28T11:27:53;98723.41;;;17.76;56.74
31088;BME280;17745;55.914;37.554;2023-04-28T11:30:40;98731.25;;;17.72;56.70
31088;BME280;17745;55.914;37.554;2023-04-28T11:33:40;98733.81;;;17.77;56.85
31088;BME280;17745;55.914;37.554;2023-04-28T11:37:01;98727.50;;;17.82;56.48
31088;BME280;17745;55.914;37.554;2023-04-28T11:40:24;98733.66;;;17.82;56.88
31088;BME280;17745;55.914;37.554;2023-04-28T11:43:05;98728.69;;;18.07;56.74
31088;BME280;17745;55.914;37.554;2023-04-28T11:45:55;98731.19;;;18.21;56.44
31088;BME280;17745;55.914;37.554;2023-04-28T11:48:34;98728.34;;;18.35;56.65
31088;BME280;17745;55.914;37.554;2023-04-28T11:51:23;98726.94;;;18.47;56.48
31088;BME280;17745;55.914;37.554;2023-04-28T11:54:27;98716.84;;;18.70;56.26
31088;BME280;17745;55.914;37.554;2023-04-28T11:57:20;98721.06;;;18.89;55.63
31088;BME280;17745;55.914;37.554;2023-04-28T12:00:40;98723.69;;;18.97;55.23
31088;BME280;17745;55.914;37.554;2023-04-28T12:03:56;98715.72;;;18.71;55.59
31088;BME280;17745;55.914;37.554;2023-04-28T12:07:07;98712.41;;;18.74;55.70
31088;BME280;17745;55.914;37.554;2023-04-28T12:10:14;98717.91;;;18.78;55.67
31088;BME280;17745;55.914;37.554;2023-04-28T12:15:45;98724.25;;;18.55;55.89
31088;BME280;17745;55.914;37.554;2023-04-28T12:19:07;98723.00;;;18.35;56.19
31088;BME280;17745;55.914;37.554;2023-04-28T12:22:21;98714.97;;;18.09;56.68
31088;BME280;17745;55.914;37.554;2023-04-28T12:25:49;98722.38;;;18.03;56.81
31088;BME280;17745;55.914;37.554;2023-04-28T12:29:02;98717.44;;;17.96;56.82
31088;BME280;17745;55.914;37.554;2023-04-28T12:32:02;98719.38;;;18.05;56.48
31088;BME280;17745;55.914;37.554;2023-04-28T12:35:16;98716.03;;;17.99;56.76
31088;BME280;17745;55.914;37.554;2023-04-28T12:38:09;98725.00;;;17.94;56.77
31088;BME280;17745;55.914;37.554;2023-04-28T12:40:57;98719.34;;;17.87;56.77
31088;BME280;17745;55.914;37.554;2023-04-28T12:47:23;98740.16;;;17.41;57.08
31088;BME280;17745;55.914;37.554;2023-04-28T12:50:19;98733.59;;;17.15;57.42
31088;BME280;17745;55.914;37.554;2023-04-28T12:53:13;98741.75;;;16.87;57.72
31088;BME280;17745;55.914;37.554;2023-04-28T12:56:29;98731.84;;;16.65;58.30
31088;BME280;17745;55.914;37.554;2023-04-28T12:59:37;98738.16;;;16.69;58.20
31088;BME280;17745;55.914;37.554;2023-04-28T13:02:36;98723.56;;;16.67;58.03
31088;BME280;17745;55.914;37.554;2023-04-28T13:05:25;98753.53;;;16.41;58.00
31088;BME280;17745;55.914;37.554;2023-04-28T13:08:16;98755.81;;;15.69;59.20
31088;BME280;17745;55.914;37.554;2023-04-28T13:11:10;98726.06;;;15.34;59.98
31088;BME280;17745;55.914;37.554;2023-04-28T13:13:47;98728.81;;;15.14;60.23
31088;BME280;17745;55.914;37.554;2023-04-28T13:16:51;98734.75;;;15.39;59.87
31088;BME280;17745;55.914;37.554;2023-04-28T13:32:11;98750.78;;;14.40;61.50
31088;BME280;17745;55.914;37.554;2023-04-28T13:34:49;98768.53;;;14.64;60.27
31088;BME280;17745;55.914;37.554;2023-04-28T13:37:35;98771.41;;;14.48;60.66
31088;BME280;17745;55.914;37.554;2023-04-28T13:40:17;98768.97;;;14.33;60.95
31088;BME280;17745;55.914;37.554;2023-04-28T13:42:56;98771.91;;;14.12;61.13
31088;BME280;17745;55.914;37.554;2023-04-28T13:45:30;98788.34;;;13.95;61.50
31088;BME280;17745;55.914;37.554;2023-04-28T13:48:07;98785.00;;;14.08;61.28
31088;BME280;17745;55.914;37.554;2023-04-28T13:51:04;98788.38;;;14.14;61.24
31088;BME280;17745;55.914;37.554;2023-04-28T13:53:46;98788.00;;;14.01;61.41
31088;BME280;17745;55.914;37.554;2023-04-28T13:57:04;98787.28;;;13.96;61.39
31088;BME280;17745;55.914;37.554;2023-04-28T14:00:25;98793.50;;;13.86;61.52
31088;BME280;17745;55.914;37.554;2023-04-28T14:22:59;98807.53;;;13.38;62.79
31088;BME280;17745;55.914;37.554;2023-04-28T14:25:57;98809.97;;;13.34;63.01
31088;BME280;17745;55.914;37.554;2023-04-28T14:29:00;98802.16;;;13.13;63.24
31088;BME280;17745;55.914;37.554;2023-04-28T14:32:03;98815.56;;;13.03;63.40
31088;BME280;17745;55.914;37.554;2023-04-28T14:49:27;98824.25;;;12.74;63.93
31088;BME280;17745;55.914;37.554;2023-04-28T14:56:40;98825.81;;;12.35;64.39
31088;BME280;17745;55.914;37.554;2023-04-28T14:59:47;98824.16;;;12.44;64.11
31088;BME280;17745;55.914;37.554;2023-04-28T15:03:14;98818.81;;;12.55;63.53
31088;BME280;17745;55.914;37.554;2023-04-28T15:20:17;98836.25;;;12.11;63.21
31088;BME280;17745;55.914;37.554;2023-04-28T15:23:10;98835.94;;;12.28;62.89
31088;BME280;17745;55.914;37.554;2023-04-28T15:26:03;98840.69;;;12.31;62.89
31088;BME280;17745;55.914;37.554;2023-04-28T15:29:16;98825.66;;;12.16;62.99
31088;BME280;17745;55.914;37.554;2023-04-28T15:32:24;98842.66;;;12.05;63.06
31088;BME280;17745;55.914;37.554;2023-04-28T15:58:06;98880.91;;;11.62;64.70
31088;BME280;17745;55.914;37.554;2023-04-28T16:01:08;98879.84;;;11.63;64.71
31088;BME280;17745;55.914;37.554;2023-04-28T16:04:24;98872.41;;;11.65;64.74
31088;BME280;17745;55.914;37.554;2023-04-28T16:07:44;98858.66;;;11.48;64.83
31088;BME280;17745;55.914;37.554;2023-04-28T16:10:47;98859.72;;;11.47;64.83
31088;BME280;17745;55.914;37.554;2023-04-28T16:13:47;98856.25;;;11.41;64.89
31088;BME280;17745;55.914;37.554;2023-04-28T16:17:16;98860.53;;;11.32;64.97
31088;BME280;17745;55.914;37.554;2023-04-28T16:20:59;98866.06;;;11.30;64.92
31088;BME280;17745;55.914;37.554;2023-04-28T16:23:59;98877.72;;;11.08;65.69
31088;BME280;17745;55.914;37.554;2023-04-28T16:27:18;98869.53;;;11.05;65.76
31088;BME280;17745;55.914;37.554;2023-04-28T16:30:54;98866.56;;;10.75;66.57
31088;BME280;17745;55.914;37.554;2023-04-28T16:33:50;98884.34;;;10.85;66.43
31088;BME280;17745;55.914;37.554;2023-04-28T16:36:53;98876.62;;;10.78;66.61
31088;BME280;17745;55.914;37.554;2023-04-28T16:40:16;98888.66;;;10.38;67.54
31088;BME280;17745;55.914;37.554;2023-04-28T16:44:00;98896.28;;;10.29;67.78
31088;BME280;17745;55.914;37.554;2023-04-28T17:04:18;98898.03;;;10.61;66.65
31088;BME280;17745;55.914;37.554;2023-04-28T17:07:24;98898.03;;;10.61;66.65
31088;BME280;17745;55.914;37.554;2023-04-28T17:10:13;98912.56;;;10.05;67.78
31088;BME280;17745;55.914;37.554;2023-04-28T17:12:50;98895.50;;;9.80;68.29
31088;BME280;17745;55.914;37.554;2023-04-28T17:15:44;98892.16;;;9.25;69.83
31088;BME280;17745;55.914;37.554;2023-04-28T17:18:21;98902.00;;;9.67;68.62
31088;BME280;17745;55.914;37.554;2023-04-28T17:21:07;98885.22;;;9.89;67.92
31088;BME280;17745;55.914;37.554;2023-04-28T17:24:09;98890.66;;;9.67;68.48
31088;BME280;17745;55.914;37.554;2023-04-28T17:27:36;98909.13;;;9.62;68.54
31088;BME280;17745;55.914;37.554;2023-04-28T17:34:30;98925.94;;;9.88;67.65
31088;BME280;17745;55.914;37.554;2023-04-28T17:44:17;98927.59;;;9.94;67.46
31088;BME280;17745;55.914;37.554;2023-04-28T17:51:04;98912.16;;;9.81;67.42
31088;BME280;17745;55.914;37.554;2023-04-28T17:54:27;98918.84;;;9.23;68.60
31088;BME280;17745;55.914;37.554;2023-04-28T17:57:58;98917.94;;;9.12;68.69
31088;BME280;17745;55.914;37.554;2023-04-28T18:01:17;98952.13;;;8.97;68.67
31088;BME280;17745;55.914;37.554;2023-04-28T18:04:20;98933.78;;;9.12;68.17
31088;BME280;17745;55.914;37.554;2023-04-28T18:07:11;98936.28;;;9.57;66.78
31088;BME280;17745;55.914;37.554;2023-04-28T18:09:58;98919.50;;;9.73;66.18
31088;BME280;17745;55.914;37.554;2023-04-28T18:12:45;98922.91;;;9.69;66.24
31088;BME280;17745;55.914;37.554;2023-04-28T18:16:00;98919.16;;;9.60;66.21
31088;BME280;17745;55.914;37.554;2023-04-28T18:18:57;98933.87;;;9.55;66.06
31088;BME280;17745;55.914;37.554;2023-04-28T18:21:43;98924.34;;;9.49;65.64
31088;BME280;17745;55.914;37.554;2023-04-28T18:28:20;98930.62;;;9.43;65.25
31088;BME280;17745;55.914;37.554;2023-04-28T18:31:41;98937.91;;;9.63;64.64
31088;BME280;17745;55.914;37.554;2023-04-28T18:35:19;98944.66;;;9.49;64.95
31088;BME280;17745;55.914;37.554;2023-04-28T18:44:52;98955.75;;;9.18;64.52
31088;BME280;17745;55.914;37.554;2023-04-28T18:47:36;98936.28;;;9.24;64.19
31088;BME280;17745;55.914;37.554;2023-04-28T18:50:24;98940.53;;;9.03;64.31
31088;BME280;17745;55.914;37.554;2023-04-28T18:53:22;98936.81;;;8.99;64.18
31088;BME280;17745;55.914;37.554;2023-04-28T18:56:10;98936.41;;;8.63;65.03
31088;BME280;17745;55.914;37.554;2023-04-28T18:58:54;98934.44;;;8.53;65.37
31088;BME280;17745;55.914;37.554;2023-04-28T19:01:39;98929.59;;;8.67;64.84
31088;BME280;17745;55.914;37.554;2023-04-28T19:07:18;98940.91;;;8.23;66.09
31088;BME280;17745;55.914;37.554;2023-04-28T19:09:57;98927.47;;;8.24;66.35
31088;BME280;17745;55.914;37.554;2023-04-28T19:13:07;98932.19;;;8.22;66.40
31088;BME280;17745;55.914;37.554;2023-04-28T19:16:17;98934.37;;;8.08;66.88
31088;BME280;17745;55.914;37.554;2023-04-28T19:19:22;98943.31;;;8.07;67.07
31088;BME280;17745;55.914;37.554;2023-04-28T19:22:31;98928.88;;;8.10;67.26
31088;BME280;17745;55.914;37.554;2023-04-28T19:25:03;98925.19;;;8.11;67.53
31088;BME280;17745;55.914;37.554;2023-04-28T19:27:36;98925.41;;;8.09;67.67
31088;BME280;17745;55.914;37.554;2023-04-28T19:30:08;98932.38;;;7.98;68.03
31088;BME280;17745;55.914;37.554;2023-04-28T19:32:45;98933.03;;;7.89;68.51
31088;BME280;17745;55.914;37.554;2023-04-28T19:35:20;98923.47;;;7.82;68.87
31088;BME280;17745;55.914;37.554;2023-04-28T19:38:06;98951.25;;;7.90;68.90
31088;BME280;17745;55.914;37.554;2023-04-28T19:41:01;98949.25;;;7.97;68.82
31088;BME280;17745;55.914;37.554;2023-04-28T19:43:46;98964.44;;;7.90;69.09
31088;BME280;17745;55.914;37.554;2023-04-28T19:46:31;98948.69;;;7.95;69.03
31088;BME280;17745;55.914;37.554;2023-04-28T19:49:12;98946.38;;;7.99;69.04
31088;BME280;17745;55.914;37.554;2023-04-28T19:52:02;98938.06;;;7.90;69.43
31088;BME280;17745;55.914;37.554;2023-04-28T19:54:57;98935.69;;;7.71;70.19
31088;BME280;17745;55.914;37.554;2023-04-28T19:58:01;98954.94;;;7.89;69.90
31088;BME280;17745;55.914;37.554;2023-04-28T20:00:42;98960.59;;;7.98;69.76
31088;BME280;17745;55.914;37.554;2023-04-28T20:03:31;98962.81;;;8.06;69.61
31088;BME280;17745;55.914;37.554;2023-04-28T20:06:31;98964.84;;;7.99;69.78
31088;BME280;17745;55.914;37.554;2023-04-28T20:09:32;98956.84;;;7.77;70.61
31088;BME280;17745;55.914;37.554;2023-04-28T20:16:31;98931.12;;;7.67;71.15
31088;BME280;17745;55.914;37.554;2023-04-28T20:19:10;98939.75;;;7.62;71.53
31088;BME280;17745;55.914;37.554;2023-04-28T20:22:30;98937.84;;;7.57;71.94
31088;BME280;17745;55.914;37.554;2023-04-28T20:25:34;98939.75;;;7.62;71.99
31088;BME280;17745;55.914;37.554;2023-04-28T20:28:56;98946.66;;;7.34;73.06
31088;BME280;17745;55.914;37.554;2023-04-28T20:31:49;98926.44;;;7.23;73.67
31088;BME280;17745;55.914;37.554;2023-04-28T20:34:38;98922.34;;;7.44;73.22
31088;BME280;17745;55.914;37.554;2023-04-28T20:37:19;98930.69;;;7.24;73.99